Time;durP1;ratioP1;P1;durP2;ratioP2;P2;SDS_P1;SDS_P2;PMS_P1;PMS_P2;Temp;Humidity;BMP_temperature;BMP_pressure;BME280_temperature;BME280_humidity;BME280_pressure;Samples;Min_cycle;Max_cycle;Signal;HPM_P1;HPM_P2
2023/05/25 00:00:59;;;;;;;3.97;1.42;;;;;;;;;;4954364;28;103492;-82
2023/05/25 00:03:29;;;;;;;5.60;1.30;;;;;;;;;;4962200;28;99795;-83
2023/05/25 00:06:00;;;;;;;5.03;1.40;;;;;;;;;;4958553;28;98698;-84
2023/05/25 00:08:27;;;;;;;3.70;1.40;;;;;;;;;;4942590;28;101498;-83
2023/05/25 00:10:54;;;;;;;;;;;;;;;;;;4946720;28;99420;-83
2023/05/25 00:13:21;;;;;;;2.55;1.20;;;;;;;;;;4949938;28;99047;-83
2023/05/25 00:15:48;;;;;;;3.47;1.30;;;;;;;;;;4949811;28;100407;-82
2023/05/25 00:18:15;;;;;;;3.92;1.30;;;;;;;;;;4948868;28;99033;-83
2023/05/25 00:20:43;;;;;;;3.42;1.33;;;;;;;;;;4944647;28;98735;-84
2023/05/25 00:23:10;;;;;;;5.07;1.75;;;;;;;;;;4949958;28;99161;-82
2023/05/25 00:25:36;;;;;;;3.40;1.40;;;;;;;;;;4950239;28;98935;-83
2023/05/25 00:28:03;;;;;;;3.95;1.40;;;;;;;;;;4949208;28;99884;-82
2023/05/25 00:30:30;;;;;;;3.67;1.30;;;;;;;;;;4948796;28;100224;-82
2023/05/25 00:33:00;;;;;;;4.57;1.40;;;;;;;;;;4948164;28;98870;-83
2023/05/25 00:35:27;;;;;;;3.72;1.35;;;;;;;;;;4958923;28;99467;-83
2023/05/25 00:37:53;;;;;;;3.30;1.38;;;;;;;;;;4954724;28;98561;-83
2023/05/25 00:40:20;;;;;;;4.03;1.40;;;;;;;;;;4951129;28;98596;-82
2023/05/25 00:42:47;;;;;;;4.00;1.58;;;;;;;;;;4948137;28;99492;-84
2023/05/25 00:45:14;;;;;;;3.72;1.27;;;;;;;;;;4949271;28;97777;-84
2023/05/25 00:47:41;;;;;;;3.05;1.30;;;;;;;;;;4949058;28;99338;-85
2023/05/25 00:50:09;;;;;;;4.18;1.40;;;;;;;;;;4948739;28;100148;-83
2023/05/25 00:52:36;;;;;;;3.38;1.48;;;;;;;;;;4948294;28;99216;-84
2023/05/25 00:55:31;;;;;;;3.75;1.40;;;;;;;;;;4948073;28;102590;-83
2023/05/25 00:57:59;;;;;;;3.78;1.45;;;;;;;;;;4952210;28;100152;-82
2023/05/25 01:00:27;;;;;;;3.45;1.20;;;;;;;;;;4946779;28;98716;-83
2023/05/25 01:02:55;;;;;;;3.75;1.25;;;;;;;;;;4950718;28;99712;-83
2023/05/25 01:05:27;;;;;;;3.38;1.40;;;;;;;;;;4948494;28;99310;-83
2023/05/25 01:07:57;;;;;;;4.60;1.50;;;;;;;;;;4947201;28;99062;-84
2023/05/25 01:10:25;;;;;;;2.90;1.40;;;;;;;;;;4946435;28;100956;-83
2023/05/25 01:12:52;;;;;;;2.88;1.30;;;;;;;;;;4947269;28;98596;-82
2023/05/25 01:15:20;;;;;;;4.18;1.50;;;;;;;;;;4946953;28;98882;-84
2023/05/25 01:17:52;;;;;;;4.53;1.50;;;;;;;;;;4947546;28;99992;-82
2023/05/25 01:20:19;;;;;;;4.75;1.40;;;;;;;;;;4949001;28;98890;-81
2023/05/25 01:25:58;;;;;;;3.78;1.40;;;;;;;;;;4945724;28;100711;-82
2023/05/25 01:28:27;;;;;;;4.22;1.50;;;;;;;;;;4945362;28;101701;-83
2023/05/25 01:30:55;;;;;;;4.53;1.33;;;;;;;;;;4926606;28;102439;-83
2023/05/25 01:33:22;;;;;;;4.00;1.40;;;;;;;;;;4948167;28;98448;-83
2023/05/25 01:35:50;;;;;;;5.15;1.70;;;;;;;;;;4949569;28;99038;-85
2023/05/25 01:38:17;;;;;;;3.25;1.30;;;;;;;;;;4946329;28;100484;-84
2023/05/25 01:40:43;;;;;;;3.20;1.30;;;;;;;;;;4946478;28;98544;-83
2023/05/25 01:43:11;;;;;;;3.08;1.42;;;;;;;;;;4946554;28;99818;-85
2023/05/25 01:45:38;;;;;;;3.05;1.45;;;;;;;;;;4959192;28;101591;-82
2023/05/25 01:48:05;;;;;;;;;;;;;;;;;;4968771;28;98905;-82
2023/05/25 01:50:42;;;;;;;3.55;1.30;;;;;;;;;;4947675;28;101847;-81
2023/05/25 01:53:09;;;;;;;3.63;1.35;;;;;;;;;;4964813;28;98743;-83
2023/05/25 01:55:41;;;;;;;3.60;1.40;;;;;;;;;;4966257;28;100997;-83
2023/05/25 01:58:09;;;;;;;3.65;1.35;;;;;;;;;;4965243;28;99245;-84
2023/05/25 02:00:37;;;;;;;3.40;1.38;;;;;;;;;;4959807;28;97729;-82
2023/05/25 02:03:04;;;;;;;4.15;1.40;;;;;;;;;;4945605;28;99249;-82
2023/05/25 02:05:31;;;;;;;3.65;1.40;;;;;;;;;;4946491;28;99369;-83
2023/05/25 02:07:58;;;;;;;3.08;1.30;;;;;;;;;;4948543;28;99322;-81
2023/05/25 02:10:29;;;;;;;4.50;1.40;;;;;;;;;;4946526;28;100180;-83
2023/05/25 02:12:56;;;;;;;4.13;1.30;;;;;;;;;;4937375;28;98612;-83
2023/05/25 02:15:23;;;;;;;4.18;1.52;;;;;;;;;;4947266;28;98839;-84
2023/05/25 02:17:50;;;;;;;4.43;1.40;;;;;;;;;;4945535;28;102050;-84
2023/05/25 02:20:17;;;;;;;3.33;1.40;;;;;;;;;;4947307;28;98469;-83
2023/05/25 02:22:43;;;;;;;3.40;1.40;;;;;;;;;;4944237;28;99128;-85
2023/05/25 02:25:11;;;;;;;5.03;1.50;;;;;;;;;;4938157;28;98529;-83
2023/05/25 02:27:37;;;;;;;;;;;;;;;;;;4947113;28;98504;-83
2023/05/25 02:30:05;;;;;;;3.42;1.30;;;;;;;;;;4949923;28;99558;-84
2023/05/25 02:32:32;;;;;;;4.18;1.30;;;;;;;;;;4946241;28;99321;-83
2023/05/25 02:35:00;;;;;;;4.38;1.40;;;;;;;;;;4944863;28;106572;-83
2023/05/25 02:37:27;;;;;;;3.85;1.45;;;;;;;;;;4944380;28;101776;-82
2023/05/25 02:39:53;;;;;;;3.95;1.55;;;;;;;;;;4945210;28;98580;-84
2023/05/25 02:42:21;;;;;;;2.92;1.40;;;;;;;;;;4945239;28;101733;-83
2023/05/25 02:44:47;;;;;;;3.33;1.30;;;;;;;;;;4944405;28;102280;-83
2023/05/25 02:47:14;;;;;;;3.40;1.40;;;;;;;;;;4945211;28;99068;-85
2023/05/25 02:49:41;;;;;;;2.55;1.30;;;;;;;;;;4945600;28;98814;-84
2023/05/25 02:52:08;;;;;;;3.47;1.27;;;;;;;;;;4948312;28;102045;-84
2023/05/25 02:54:35;;;;;;;4.63;1.50;;;;;;;;;;4945774;28;99668;-84
2023/05/25 02:57:03;;;;;;;2.92;1.30;;;;;;;;;;4944284;28;102209;-85
2023/05/25 02:59:30;;;;;;;4.50;1.60;;;;;;;;;;4945097;28;98703;-84
2023/05/25 03:01:57;;;;;;;3.47;1.20;;;;;;;;;;4946442;28;100238;-84
2023/05/25 03:04:25;;;;;;;4.82;1.60;;;;;;;;;;4946309;28;99154;-84
2023/05/25 03:06:52;;;;;;;2.83;1.30;;;;;;;;;;4943773;28;98507;-83
2023/05/25 03:09:20;;;;;;;4.55;1.52;;;;;;;;;;4945227;28;101796;-84
2023/05/25 03:11:48;;;;;;;4.05;1.30;;;;;;;;;;4946455;28;100744;-84
2023/05/25 03:14:18;;;;;;;3.67;1.42;;;;;;;;;;4949141;28;97884;-83
2023/05/25 03:16:52;;;;;;;3.47;1.27;;;;;;;;;;4947133;28;102056;-84
2023/05/25 03:19:21;;;;;;;3.08;1.45;;;;;;;;;;4929604;28;98576;-84
2023/05/25 03:21:48;;;;;;;3.70;1.42;;;;;;;;;;4946245;28;99281;-82
2023/05/25 03:24:16;;;;;;;4.82;1.50;;;;;;;;;;4928691;28;101800;-84
2023/05/25 03:26:43;;;;;;;3.70;1.40;;;;;;;;;;4944577;28;98597;-84
2023/05/25 03:29:10;;;;;;;4.88;1.60;;;;;;;;;;4944745;28;101594;-84
2023/05/25 03:31:37;;;;;;;2.35;1.30;;;;;;;;;;4946986;28;99133;-83
2023/05/25 03:34:05;;;;;;;3.45;1.48;;;;;;;;;;4945382;28;99427;-84
2023/05/25 03:36:36;;;;;;;4.88;1.60;;;;;;;;;;4950336;28;101220;-83
2023/05/25 03:39:06;;;;;;;3.58;1.60;;;;;;;;;;4949384;28;98255;-83
2023/05/25 03:41:33;;;;;;;5.22;1.30;;;;;;;;;;4950176;28;99012;-83
2023/05/25 03:43:59;;;;;;;4.50;1.40;;;;;;;;;;4950040;28;100131;-84
2023/05/25 03:46:26;;;;;;;4.18;1.55;;;;;;;;;;4947380;28;99935;-83
2023/05/25 03:48:55;;;;;;;3.28;1.40;;;;;;;;;;4946856;28;102516;-84
2023/05/25 03:51:22;;;;;;;3.75;1.60;;;;;;;;;;4940334;28;101902;-83
2023/05/25 03:53:48;;;;;;;3.65;1.40;;;;;;;;;;4958305;28;99856;-83
2023/05/25 03:56:15;;;;;;;3.47;1.50;;;;;;;;;;4947764;28;99949;-83
2023/05/25 03:58:41;;;;;;;2.80;1.30;;;;;;;;;;4964572;28;98638;-82
2023/05/25 04:01:09;;;;;;;3.42;1.35;;;;;;;;;;4957140;28;100091;-83
2023/05/25 04:03:35;;;;;;;3.13;1.30;;;;;;;;;;4949585;28;101150;-84
2023/05/25 04:06:02;;;;;;;3.33;1.40;;;;;;;;;;4954040;28;99189;-82
2023/05/25 04:08:29;;;;;;;3.45;1.35;;;;;;;;;;4951786;28;101661;-83
2023/05/25 04:10:56;;;;;;;4.60;1.52;;;;;;;;;;4950073;28;101515;-83
2023/05/25 04:13:23;;;;;;;4.03;1.60;;;;;;;;;;4954948;28;99103;-83
2023/05/25 04:15:51;;;;;;;3.38;1.40;;;;;;;;;;4955904;28;99990;-83
2023/05/25 04:18:21;;;;;;;3.72;1.60;;;;;;;;;;4957632;28;102151;-84
2023/05/25 04:20:48;;;;;;;3.53;1.40;;;;;;;;;;4952953;28;99230;-84
2023/05/25 04:23:18;;;;;;;4.78;1.50;;;;;;;;;;4949834;28;101533;-83
2023/05/25 04:25:45;;;;;;;3.28;1.30;;;;;;;;;;4949588;28;98832;-83
2023/05/25 04:28:13;;;;;;;3.60;1.38;;;;;;;;;;4949569;28;100201;-84
2023/05/25 04:30:48;;;;;;;4.32;1.50;;;;;;;;;;4947948;28;102174;-84
2023/05/25 04:33:28;;;;;;;3.80;1.40;;;;;;;;;;4947733;28;99205;-84
2023/05/25 04:36:13;;;;;;;3.17;1.30;;;;;;;;;;4960996;28;101816;-83
2023/05/25 04:38:40;;;;;;;2.60;1.20;;;;;;;;;;4967009;28;101844;-83
2023/05/25 04:41:07;;;;;;;4.10;1.40;;;;;;;;;;4955257;28;98726;-83
2023/05/25 04:43:34;;;;;;;2.45;1.10;;;;;;;;;;4948563;28;101910;-84
2023/05/25 04:46:03;;;;;;;3.35;1.33;;;;;;;;;;4955787;28;98988;-83
2023/05/25 04:48:33;;;;;;;2.85;1.33;;;;;;;;;;4982526;28;100263;-83
2023/05/25 04:51:03;;;;;;;3.05;1.30;;;;;;;;;;4951767;28;103778;-82
2023/05/25 04:53:31;;;;;;;4.38;1.50;;;;;;;;;;4970177;28;98267;-85
2023/05/25 04:55:58;;;;;;;2.72;1.30;;;;;;;;;;4967810;28;100441;-83
2023/05/25 04:58:24;;;;;;;2.25;1.20;;;;;;;;;;4967793;28;101513;-84
2023/05/25 05:00:51;;;;;;;3.55;1.30;;;;;;;;;;4967459;28;100659;-83
2023/05/25 05:03:18;;;;;;;3.70;1.40;;;;;;;;;;4967321;28;100824;-83
2023/05/25 05:05:45;;;;;;;2.15;1.20;;;;;;;;;;4941850;28;98783;-85
2023/05/25 05:08:18;;;;;;;2.92;1.40;;;;;;;;;;4949616;28;100823;-83
2023/05/25 05:10:45;;;;;;;2.78;1.27;;;;;;;;;;4952141;28;99168;-83
2023/05/25 05:13:12;;;;;;;2.70;1.30;;;;;;;;;;4955852;28;99053;-82
2023/05/25 05:15:40;;;;;;;3.67;1.40;;;;;;;;;;4952947;28;101621;-82
2023/05/25 05:18:08;;;;;;;3.17;1.35;;;;;;;;;;4947966;28;101210;-83
2023/05/25 05:20:35;;;;;;;;;;;;;;;;;;4947374;28;98956;-82
2023/05/25 05:23:02;;;;;;;3.13;1.13;;;;;;;;;;4949033;28;100837;-85
2023/05/25 05:25:29;;;;;;;2.67;1.20;;;;;;;;;;4951405;28;100830;-84
2023/05/25 05:27:56;;;;;;;4.55;1.38;;;;;;;;;;4947813;28;102105;-83
2023/05/25 05:30:26;;;;;;;3.35;1.30;;;;;;;;;;4947477;28;101176;-82
2023/05/25 05:32:54;;;;;;;3.17;1.35;;;;;;;;;;4947705;28;99178;-84
2023/05/25 05:35:25;;;;;;;2.95;1.40;;;;;;;;;;4947938;28;99102;-83
2023/05/25 05:38:01;;;;;;;3.15;1.30;;;;;;;;;;4947478;28;99227;-83
2023/05/25 05:40:28;;;;;;;2.58;1.38;;;;;;;;;;4947516;28;98591;-84
2023/05/25 05:42:55;;;;;;;2.50;1.33;;;;;;;;;;4943482;28;98749;-83
2023/05/25 05:45:21;;;;;;;2.72;1.38;;;;;;;;;;4946974;28;100104;-83
2023/05/25 05:47:48;;;;;;;3.03;1.30;;;;;;;;;;4951433;28;98625;-83
2023/05/25 05:50:15;;;;;;;3.45;1.30;;;;;;;;;;4956947;28;102640;-83
2023/05/25 05:52:43;;;;;;;2.78;1.33;;;;;;;;;;4941750;28;99657;-83
2023/05/25 05:55:10;;;;;;;3.50;1.42;;;;;;;;;;4947734;28;99114;-83
2023/05/25 05:57:39;;;;;;;3.05;1.40;;;;;;;;;;4945258;28;102426;-83
2023/05/25 06:00:07;;;;;;;3.55;1.42;;;;;;;;;;4958145;28;98663;-82
2023/05/25 06:02:40;;;;;;;4.05;1.25;;;;;;;;;;4965906;28;98775;-82
2023/05/25 06:05:10;;;;;;;3.50;1.33;;;;;;;;;;4959898;28;101504;-82
2023/05/25 06:07:39;;;;;;;3.33;1.40;;;;;;;;;;4933596;28;98364;-82
2023/05/25 06:10:06;;;;;;;3.72;1.30;;;;;;;;;;4951534;28;99110;-82
2023/05/25 06:12:33;;;;;;;4.20;1.50;;;;;;;;;;4948000;28;98995;-81
2023/05/25 06:15:00;;;;;;;2.90;1.30;;;;;;;;;;4945237;28;100661;-82
2023/05/25 06:17:28;;;;;;;2.50;1.30;;;;;;;;;;4929392;28;101551;-82
2023/05/25 06:19:55;;;;;;;3.65;1.60;;;;;;;;;;4948037;28;98658;-83
2023/05/25 06:22:26;;;;;;;3.03;1.30;;;;;;;;;;4963713;28;100312;-82
2023/05/25 06:24:54;;;;;;;3.30;1.33;;;;;;;;;;4972018;28;99197;-83
2023/05/25 06:27:22;;;;;;;4.18;1.50;;;;;;;;;;4968857;28;98485;-82
2023/05/25 06:29:49;;;;;;;2.80;1.33;;;;;;;;;;4994315;28;98448;-83
2023/05/25 06:32:15;;;;;;;2.75;1.30;;;;;;;;;;4989334;28;98132;-82
2023/05/25 06:34:42;;;;;;;2.80;1.40;;;;;;;;;;4985596;28;100170;-81
2023/05/25 06:37:09;;;;;;;4.18;1.70;;;;;;;;;;4964679;28;100597;-82
2023/05/25 06:39:36;;;;;;;5.07;1.40;;;;;;;;;;4970769;28;98440;-83
2023/05/25 06:42:04;;;;;;;2.45;1.17;;;;;;;;;;4970514;28;99491;-84
2023/05/25 06:44:32;;;;;;;3.03;1.33;;;;;;;;;;4969740;28;99296;-83
2023/05/25 06:47:05;;;;;;;2.47;1.30;;;;;;;;;;4970692;28;98817;-84
2023/05/25 06:49:32;;;;;;;3.97;1.40;;;;;;;;;;4986773;28;98764;-82
2023/05/25 06:51:59;;;;;;;4.35;1.40;;;;;;;;;;4978795;28;98683;-82
2023/05/25 06:54:26;;;;;;;4.10;1.50;;;;;;;;;;4982093;28;98809;-82
2023/05/25 06:56:53;;;;;;;4.90;1.48;;;;;;;;;;4973855;28;99067;-82
2023/05/25 06:59:19;;;;;;;3.67;1.40;;;;;;;;;;4954275;28;99165;-83
2023/05/25 07:01:47;;;;;;;2.40;1.13;;;;;;;;;;4950404;28;101140;-82
2023/05/25 07:04:14;;;;;;;;;;;;;;;;;;4955253;28;99839;-82
2023/05/25 07:06:41;;;;;;;3.92;1.30;;;;;;;;;;4948651;28;98532;-83
2023/05/25 07:09:07;;;;;;;3.15;1.35;;;;;;;;;;4958469;28;98472;-82
2023/05/25 07:11:34;;;;;;;3.63;1.42;;;;;;;;;;4969092;28;100273;-82
2023/05/25 07:14:01;;;;;;;2.83;1.20;;;;;;;;;;4943591;28;98762;-83
2023/05/25 07:16:28;;;;;;;4.03;1.70;;;;;;;;;;4946971;28;99211;-83
2023/05/25 07:18:55;;;;;;;2.90;1.38;;;;;;;;;;4946663;28;99114;-83
2023/05/25 07:21:25;;;;;;;4.10;1.42;;;;;;;;;;4945712;28;102243;-84
2023/05/25 07:23:52;;;;;;;4.20;1.80;;;;;;;;;;4947268;28;99224;-81
2023/05/25 07:26:21;;;;;;;3.55;1.48;;;;;;;;;;4951373;28;98692;-84
2023/05/25 07:28:49;;;;;;;3.47;1.45;;;;;;;;;;4947493;28;101336;-83
2023/05/25 07:31:16;;;;;;;4.40;1.40;;;;;;;;;;4946867;28;99374;-81
2023/05/25 07:33:43;;;;;;;2.72;1.33;;;;;;;;;;4946508;28;98692;-82
2023/05/25 07:36:11;;;;;;;3.75;1.45;;;;;;;;;;4936006;28;99029;-82
2023/05/25 07:38:38;;;;;;;3.00;1.40;;;;;;;;;;4950252;28;98562;-82
2023/05/25 07:41:05;;;;;;;3.78;1.40;;;;;;;;;;4947275;28;101122;-83
2023/05/25 07:43:32;;;;;;;4.25;1.40;;;;;;;;;;4946566;28;101783;-84
2023/05/25 07:46:00;;;;;;;4.03;1.50;;;;;;;;;;4947751;28;98017;-82
2023/05/25 07:48:27;;;;;;;4.20;1.40;;;;;;;;;;4940426;28;98509;-83
2023/05/25 07:50:54;;;;;;;4.70;1.50;;;;;;;;;;4937166;28;99143;-84
2023/05/25 07:53:21;;;;;;;3.55;1.30;;;;;;;;;;4946455;28;100650;-83
2023/05/25 07:55:47;;;;;;;3.08;1.40;;;;;;;;;;4949298;28;100790;-82
2023/05/25 07:58:14;;;;;;;4.05;1.38;;;;;;;;;;4946828;28;98567;-82
2023/05/25 08:00:42;;;;;;;4.88;1.40;;;;;;;;;;4945288;28;101773;-82
2023/05/25 08:03:09;;;;;;;3.75;1.40;;;;;;;;;;4940842;28;99590;-83
2023/05/25 08:05:36;;;;;;;5.00;1.40;;;;;;;;;;4961104;28;98528;-84
2023/05/25 08:08:03;;;;;;;4.10;1.40;;;;;;;;;;4970665;28;98906;-84
2023/05/25 08:10:31;;;;;;;3.40;1.30;;;;;;;;;;4968926;28;98849;-83
2023/05/25 08:12:58;;;;;;;3.30;1.33;;;;;;;;;;4956632;28;98596;-83
2023/05/25 08:15:25;;;;;;;5.10;1.42;;;;;;;;;;4958325;28;98476;-83
2023/05/25 08:17:52;;;;;;;4.22;1.67;;;;;;;;;;4962172;28;99959;-83
2023/05/25 08:20:19;;;;;;;4.20;1.38;;;;;;;;;;4962354;28;99645;-82
2023/05/25 08:22:46;;;;;;;3.47;1.40;;;;;;;;;;4957760;28;99711;-85
2023/05/25 08:25:13;;;;;;;3.67;1.42;;;;;;;;;;4971136;28;98896;-84
2023/05/25 08:27:42;;;;;;;3.17;1.30;;;;;;;;;;4969623;28;98769;-84
2023/05/25 08:30:09;;;;;;;4.55;1.65;;;;;;;;;;4965295;28;99459;-84
2023/05/25 08:32:36;;;;;;;3.60;1.30;;;;;;;;;;4966058;28;98583;-83
2023/05/25 08:35:03;;;;;;;4.65;1.50;;;;;;;;;;4969546;28;98773;-83
2023/05/25 08:37:34;;;;;;;3.22;1.20;;;;;;;;;;4970255;28;99419;-84
2023/05/25 08:40:01;;;;;;;4.03;1.52;;;;;;;;;;4967316;28;98692;-85
2023/05/25 08:42:28;;;;;;;3.75;1.40;;;;;;;;;;4964059;28;100533;-84
2023/05/25 08:44:55;;;;;;;5.07;1.50;;;;;;;;;;4970942;28;99128;-84
2023/05/25 08:47:23;;;;;;;3.67;1.48;;;;;;;;;;4971673;28;100626;-83
2023/05/25 08:49:51;;;;;;;3.88;1.40;;;;;;;;;;4974914;28;99722;-83
2023/05/25 08:52:21;;;;;;;3.88;1.30;;;;;;;;;;4962356;28;98699;-83
2023/05/25 08:54:50;;;;;;;4.38;1.50;;;;;;;;;;4969698;28;99175;-83
2023/05/25 08:57:24;;;;;;;3.90;1.50;;;;;;;;;;4968732;28;99851;-83
2023/05/25 09:00:10;;;;;;;3.50;1.30;;;;;;;;;;4967937;28;99255;-83
2023/05/25 09:02:36;;;;;;;3.63;1.30;;;;;;;;;;4970972;28;99421;-83
2023/05/25 09:05:03;;;;;;;3.80;1.30;;;;;;;;;;4967880;28;98618;-85
2023/05/25 09:07:30;;;;;;;4.63;1.50;;;;;;;;;;4939107;28;99855;-84
2023/05/25 09:09:59;;;;;;;4.10;1.45;;;;;;;;;;4949974;28;99093;-84
2023/05/25 09:12:29;;;;;;;3.90;1.40;;;;;;;;;;4947443;28;98736;-83
2023/05/25 09:14:56;;;;;;;3.58;1.42;;;;;;;;;;4948620;28;98897;-84
2023/05/25 09:17:26;;;;;;;3.25;1.42;;;;;;;;;;4947826;28;98575;-83
2023/05/25 09:19:53;;;;;;;3.17;1.20;;;;;;;;;;4948179;28;98517;-83
2023/05/25 09:22:20;;;;;;;3.55;1.38;;;;;;;;;;4946312;28;99170;-84
2023/05/25 09:24:47;;;;;;;3.47;1.60;;;;;;;;;;4950424;28;100629;-83
2023/05/25 09:27:14;;;;;;;;;;;;;;;;;;4946444;28;99738;-84
2023/05/25 09:29:41;;;;;;;4.25;1.50;;;;;;;;;;4949182;28;99211;-84
2023/05/25 09:32:08;;;;;;;3.38;1.30;;;;;;;;;;4945952;28;99957;-83
2023/05/25 09:34:35;;;;;;;4.47;1.40;;;;;;;;;;4944915;28;100881;-83
2023/05/25 09:37:15;;;;;;;2.65;1.23;;;;;;;;;;4948226;28;99432;-83
2023/05/25 09:39:42;;;;;;;2.60;1.20;;;;;;;;;;4946914;28;98590;-83
2023/05/25 09:42:10;;;;;;;3.90;1.30;;;;;;;;;;4933507;28;98717;-84
2023/05/25 09:44:36;;;;;;;;;;;;;;;;;;4940228;28;99426;-82
2023/05/25 09:47:03;;;;;;;3.53;1.40;;;;;;;;;;4951156;28;99107;-83
2023/05/25 09:49:30;;;;;;;4.00;1.33;;;;;;;;;;4947607;28;98699;-84
2023/05/25 09:51:57;;;;;;;3.20;1.40;;;;;;;;;;4948617;28;100693;-84
2023/05/25 09:54:24;;;;;;;4.45;1.50;;;;;;;;;;4947458;28;100018;-84
2023/05/25 09:56:51;;;;;;;4.07;1.33;;;;;;;;;;4945244;28;100371;-83
2023/05/25 09:59:18;;;;;;;4.68;1.55;;;;;;;;;;4945459;28;98889;-82
2023/05/25 10:01:49;;;;;;;3.60;1.35;;;;;;;;;;4945293;28;102166;-83
2023/05/25 10:04:15;;;;;;;3.55;1.40;;;;;;;;;;4946804;28;99678;-83
2023/05/25 10:06:44;;;;;;;4.10;1.55;;;;;;;;;;4947495;28;98644;-83
2023/05/25 10:09:13;;;;;;;3.70;1.35;;;;;;;;;;4946944;28;100484;-83
2023/05/25 10:11:42;;;;;;;3.20;1.40;;;;;;;;;;4945486;28;98606;-83
2023/05/25 10:14:09;;;;;;;3.85;1.40;;;;;;;;;;4933085;28;99225;-84
2023/05/25 10:16:38;;;;;;;3.33;1.25;;;;;;;;;;4946586;28;99351;-83
2023/05/25 10:19:14;;;;;;;4.90;1.50;;;;;;;;;;4947487;28;98955;-84
2023/05/25 10:21:42;;;;;;;3.30;1.40;;;;;;;;;;4934995;28;101293;-83
2023/05/25 10:24:13;;;;;;;5.03;1.75;;;;;;;;;;4934549;28;99224;-84
2023/05/25 10:26:44;;;;;;;4.00;1.40;;;;;;;;;;4944544;28;99289;-82
2023/05/25 10:29:12;;;;;;;2.78;1.40;;;;;;;;;;4949832;28;98972;-83
2023/05/25 10:31:39;;;;;;;3.60;1.33;;;;;;;;;;4946486;28;98538;-83
2023/05/25 10:34:07;;;;;;;4.53;1.38;;;;;;;;;;4946010;28;100690;-84
2023/05/25 10:36:33;;;;;;;3.15;1.38;;;;;;;;;;4944121;28;99060;-81
2023/05/25 10:39:01;;;;;;;3.50;1.42;;;;;;;;;;4939093;28;98342;-83
2023/05/25 10:41:28;;;;;;;2.72;1.20;;;;;;;;;;4945389;28;99555;-85
2023/05/25 10:43:55;;;;;;;3.33;1.40;;;;;;;;;;4945837;28;99145;-83
2023/05/25 10:46:22;;;;;;;4.07;1.50;;;;;;;;;;4944555;28;99669;-83
2023/05/25 10:48:50;;;;;;;3.30;1.30;;;;;;;;;;4946078;28;99584;-82
2023/05/25 10:51:20;;;;;;;4.30;1.23;;;;;;;;;;4949201;28;100623;-83
2023/05/25 10:53:58;;;;;;;2.92;1.30;;;;;;;;;;4946607;28;100406;-83
2023/05/25 10:56:25;;;;;;;2.22;1.13;;;;;;;;;;4944796;28;101845;-82
2023/05/25 10:58:52;;;;;;;3.22;1.30;;;;;;;;;;4945412;28;98571;-83
2023/05/25 11:01:19;;;;;;;3.55;1.20;;;;;;;;;;4946993;28;98657;-83
2023/05/25 11:03:46;;;;;;;2.97;1.42;;;;;;;;;;4946486;28;98816;-84
2023/05/25 11:06:14;;;;;;;3.17;1.20;;;;;;;;;;4941346;28;98649;-83
2023/05/25 11:08:50;;;;;;;3.38;1.30;;;;;;;;;;4946014;28;98857;-83
2023/05/25 11:11:17;;;;;;;3.78;1.27;;;;;;;;;;4944428;28;99914;-83
2023/05/25 11:13:44;;;;;;;3.55;1.20;;;;;;;;;;4952179;28;98506;-83
2023/05/25 11:16:16;;;;;;;4.50;1.40;;;;;;;;;;4945964;28;101636;-82
2023/05/25 11:18:47;;;;;;;3.40;1.30;;;;;;;;;;4946371;28;98818;-82
2023/05/25 11:21:15;;;;;;;3.45;1.40;;;;;;;;;;4946183;28;98771;-83
2023/05/25 11:23:58;;;;;;;4.97;1.50;;;;;;;;;;4946334;28;99121;-83
2023/05/25 11:26:27;;;;;;;4.80;1.30;;;;;;;;;;4946547;28;98920;-82
2023/05/25 11:28:55;;;;;;;2.75;1.30;;;;;;;;;;4950027;28;98995;-83
2023/05/25 11:31:29;;;;;;;4.32;1.42;;;;;;;;;;4946259;28;99076;-82
2023/05/25 11:33:59;;;;;;;5.13;1.42;;;;;;;;;;4945368;28;98630;-83
2023/05/25 11:36:30;;;;;;;2.97;1.27;;;;;;;;;;4947168;28;99370;-82
2023/05/25 11:39:00;;;;;;;3.35;1.35;;;;;;;;;;4944051;28;99110;-83
2023/05/25 11:41:37;;;;;;;3.80;1.30;;;;;;;;;;4946606;28;98705;-83
2023/05/25 11:44:07;;;;;;;3.67;1.40;;;;;;;;;;4948076;28;99640;-82
2023/05/25 11:46:34;;;;;;;3.38;1.40;;;;;;;;;;4945924;28;98594;-83
2023/05/25 11:49:01;;;;;;;2.95;1.30;;;;;;;;;;4951727;28;99052;-83
2023/05/25 11:51:28;;;;;;;3.53;1.30;;;;;;;;;;4948731;28;100388;-82
2023/05/25 11:53:55;;;;;;;4.20;1.40;;;;;;;;;;4946772;28;98235;-82
2023/05/25 11:56:22;;;;;;;3.55;1.20;;;;;;;;;;4947164;28;99179;-81
2023/05/25 11:59:01;;;;;;;3.58;1.20;;;;;;;;;;4951239;28;107268;-83
2023/05/25 12:01:30;;;;;;;5.18;1.60;;;;;;;;;;4950644;28;99625;-82
2023/05/25 12:03:57;;;;;;;3.00;1.30;;;;;;;;;;4968650;28;100102;-81
2023/05/25 12:06:25;;;;;;;4.10;1.20;;;;;;;;;;4961565;28;100039;-83
2023/05/25 12:08:53;;;;;;;3.08;1.20;;;;;;;;;;4966978;28;100065;-81
2023/05/25 12:11:31;;;;;;;3.72;1.13;;;;;;;;;;4969579;28;101132;-81
2023/05/25 12:13:58;;;;;;;3.20;1.20;;;;;;;;;;4962228;28;98706;-82
2023/05/25 12:16:25;;;;;;;2.55;1.23;;;;;;;;;;4956290;28;98763;-82
2023/05/25 12:18:52;;;;;;;4.43;1.10;;;;;;;;;;4954295;28;99545;-84
2023/05/25 12:21:20;;;;;;;3.88;1.50;;;;;;;;;;4957447;28;99009;-82
2023/05/25 12:23:47;;;;;;;2.75;1.20;;;;;;;;;;4962796;28;100561;-83
2023/05/25 12:26:15;;;;;;;4.57;1.40;;;;;;;;;;4948863;28;99322;-84
2023/05/25 12:28:41;;;;;;;;;;;;;;;;;;4947064;28;102364;-81
2023/05/25 12:31:21;;;;;;;3.30;1.40;;;;;;;;;;4938681;28;99373;-81
2023/05/25 12:34:04;;;;;;;3.17;1.20;;;;;;;;;;4949063;28;98507;-83
2023/05/25 12:36:47;;;;;;;3.95;1.30;;;;;;;;;;4949066;28;99530;-83
2023/05/25 12:39:15;;;;;;;4.13;1.40;;;;;;;;;;4948740;28;103620;-82
2023/05/25 12:41:52;;;;;;;5.38;1.40;;;;;;;;;;4952170;28;98550;-82
2023/05/25 12:44:26;;;;;;;3.25;1.35;;;;;;;;;;4937377;28;98867;-83
2023/05/25 12:46:53;;;;;;;2.35;1.13;;;;;;;;;;4947923;28;98820;-82
2023/05/25 12:49:28;;;;;;;3.75;1.48;;;;;;;;;;4948972;28;99517;-82
2023/05/25 12:51:55;;;;;;;3.85;1.38;;;;;;;;;;4947473;28;99931;-83
2023/05/25 12:54:39;;;;;;;4.47;1.45;;;;;;;;;;4948282;28;98822;-82
2023/05/25 12:57:08;;;;;;;3.20;1.30;;;;;;;;;;4950971;28;103391;-83
2023/05/25 12:59:35;;;;;;;3.30;1.38;;;;;;;;;;4966181;28;100852;-83
2023/05/25 13:02:03;;;;;;;4.03;1.25;;;;;;;;;;4967711;28;98730;-85
2023/05/25 13:04:30;;;;;;;3.05;1.15;;;;;;;;;;4970683;28;99530;-81
2023/05/25 13:06:57;;;;;;;3.85;1.40;;;;;;;;;;4969315;28;98678;-82
2023/05/25 13:09:27;;;;;;;3.58;1.30;;;;;;;;;;4968239;28;99106;-82
2023/05/25 13:11:54;;;;;;;2.40;1.20;;;;;;;;;;4957855;28;99105;-81
2023/05/25 13:14:24;;;;;;;4.32;1.30;;;;;;;;;;4945243;28;99065;-82
2023/05/25 13:16:52;;;;;;;3.97;1.33;;;;;;;;;;4965071;28;100044;-83
2023/05/25 13:19:20;;;;;;;3.38;1.20;;;;;;;;;;4941304;28;100677;-82
2023/05/25 13:21:48;;;;;;;2.65;1.20;;;;;;;;;;4957603;28;99113;-82
2023/05/25 13:24:20;;;;;;;4.68;1.40;;;;;;;;;;4966728;28;99030;-83
2023/05/25 13:26:48;;;;;;;3.17;1.33;;;;;;;;;;4967585;28;99156;-82
2023/05/25 13:29:17;;;;;;;4.60;1.40;;;;;;;;;;4965847;28;98713;-83
2023/05/25 13:31:44;;;;;;;5.07;1.45;;;;;;;;;;4968018;28;99117;-82
2023/05/25 13:34:10;;;;;;;;;;;;;;;;;;4952814;28;97945;-82
2023/05/25 13:36:37;;;;;;;4.03;1.38;;;;;;;;;;4964638;28;100237;-82
2023/05/25 13:39:04;;;;;;;4.22;1.25;;;;;;;;;;4966194;28;100406;-83
2023/05/25 13:41:31;;;;;;;4.13;1.35;;;;;;;;;;4957107;28;99394;-83
2023/05/25 13:43:58;;;;;;;4.57;1.50;;;;;;;;;;4950948;28;100777;-83
2023/05/25 13:46:25;;;;;;;4.55;1.30;;;;;;;;;;4945637;28;102160;-83
2023/05/25 13:48:58;;;;;;;4.03;1.40;;;;;;;;;;4950852;28;99029;-81
2023/05/25 13:51:25;;;;;;;3.90;1.30;;;;;;;;;;4949296;28;99451;-83
2023/05/25 13:53:52;;;;;;;4.97;1.52;;;;;;;;;;4945368;28;100396;-83
2023/05/25 13:56:19;;;;;;;3.58;1.30;;;;;;;;;;4947653;28;99292;-82
2023/05/25 13:58:45;;;;;;;5.72;1.45;;;;;;;;;;4947063;28;99062;-84
2023/05/25 14:01:12;;;;;;;4.50;1.20;;;;;;;;;;4918845;28;98549;-83
2023/05/25 14:03:39;;;;;;;5.20;1.63;;;;;;;;;;4946606;28;98826;-83
2023/05/25 14:06:09;;;;;;;4.55;1.38;;;;;;;;;;4946742;28;99781;-82
2023/05/25 14:08:37;;;;;;;3.85;1.40;;;;;;;;;;4945073;28;98519;-81
2023/05/25 14:11:04;;;;;;;5.57;1.50;;;;;;;;;;4950057;28;98802;-83
2023/05/25 14:13:30;;;;;;;5.10;1.30;;;;;;;;;;4947277;28;99014;-83
2023/05/25 14:15:57;;;;;;;3.20;1.30;;;;;;;;;;4947362;28;98780;-82
2023/05/25 14:18:24;;;;;;;4.70;1.40;;;;;;;;;;4935749;28;99485;-83
2023/05/25 14:20:51;;;;;;;3.53;1.38;;;;;;;;;;4944164;28;98594;-82
2023/05/25 14:23:18;;;;;;;;;;;;;;;;;;4947725;28;100017;-82
2023/05/25 14:25:45;;;;;;;3.65;1.30;;;;;;;;;;4931184;28;101770;-84
2023/05/25 14:28:13;;;;;;;4.38;1.40;;;;;;;;;;4947733;28;99028;-83
2023/05/25 14:30:40;;;;;;;5.55;1.40;;;;;;;;;;4933019;28;101720;-83
2023/05/25 14:33:12;;;;;;;4.90;1.35;;;;;;;;;;4946218;28;98796;-83
2023/05/25 14:35:41;;;;;;;5.00;1.50;;;;;;;;;;4952756;28;101959;-83
2023/05/25 14:38:08;;;;;;;3.97;1.33;;;;;;;;;;4964970;28;99430;-83
2023/05/25 14:40:35;;;;;;;2.78;1.30;;;;;;;;;;4946358;28;98559;-81
2023/05/25 14:43:02;;;;;;;5.13;1.58;;;;;;;;;;4946725;28;98719;-83
2023/05/25 14:45:29;;;;;;;4.90;1.55;;;;;;;;;;4949987;28;99448;-82
2023/05/25 14:47:56;;;;;;;3.00;1.35;;;;;;;;;;4953299;28;98024;-83
2023/05/25 14:50:43;;;;;;;4.78;1.40;;;;;;;;;;4949560;28;98526;-83